sensor_id;sensor_type;location;lat;lon;timestamp;P1;durP1;ratioP1;P2;durP2;ratioP2
70450;SDS011;58869;51.982;4.450;2023-02-28T00:01:40;9.14;;;8.44;;
70450;SDS011;58869;51.982;4.450;2023-02-28T00:04:15;8.70;;;8.06;;
70450;SDS011;58869;51.982;4.450;2023-02-28T00:06:49;9.05;;;8.68;;
70450;SDS011;58869;51.982;4.450;2023-02-28T00:09:27;10.79;;;10.17;;
70450;SDS011;58869;51.982;4.450;2023-02-28T00:11:53;9.03;;;8.62;;
70450;SDS011;58869;51.982;4.450;2023-02-28T00:14:18;7.25;;;7.02;;
70450;SDS011;58869;51.982;4.450;2023-02-28T00:16:55;6.29;;;6.11;;
70450;SDS011;58869;51.982;4.450;2023-02-28T00:19:42;4.60;;;4.48;;
70450;SDS011;58869;51.982;4.450;2023-02-28T00:31:22;4.17;;;4.17;;
70450;SDS011;58869;51.982;4.450;2023-02-28T00:40:26;3.89;;;3.88;;
70450;SDS011;58869;51.982;4.450;2023-02-28T00:45:51;4.16;;;4.14;;
70450;SDS011;58869;51.982;4.450;2023-02-28T00:48:32;3.99;;;3.98;;
70450;SDS011;58869;51.982;4.450;2023-02-28T00:53:44;3.82;;;3.82;;
70450;SDS011;58869;51.982;4.450;2023-02-28T00:56:10;3.91;;;3.91;;
70450;SDS011;58869;51.982;4.450;2023-02-28T00:58:38;4.13;;;4.12;;
70450;SDS011;58869;51.982;4.450;2023-02-28T01:01:04;3.92;;;3.91;;
70450;SDS011;58869;51.982;4.450;2023-02-28T01:03:42;4.56;;;4.54;;
70450;SDS011;58869;51.982;4.450;2023-02-28T01:06:14;4.95;;;4.89;;
70450;SDS011;58869;51.982;4.450;2023-02-28T01:08:39;5.26;;;5.19;;
70450;SDS011;58869;51.982;4.450;2023-02-28T01:11:21;5.38;;;5.31;;
70450;SDS011;58869;51.982;4.450;2023-02-28T01:13:46;5.82;;;5.74;;
70450;SDS011;58869;51.982;4.450;2023-02-28T01:16:24;6.10;;;6.03;;
70450;SDS011;58869;51.982;4.450;2023-02-28T01:18:56;6.04;;;5.98;;
70450;SDS011;58869;51.982;4.450;2023-02-28T01:21:24;6.51;;;6.42;;
70450;SDS011;58869;51.982;4.450;2023-02-28T01:24:05;6.72;;;6.61;;
70450;SDS011;58869;51.982;4.450;2023-02-28T01:26:31;6.78;;;6.70;;
70450;SDS011;58869;51.982;4.450;2023-02-28T01:28:59;7.40;;;7.23;;
70450;SDS011;58869;51.982;4.450;2023-02-28T01:31:28;7.84;;;7.70;;
70450;SDS011;58869;51.982;4.450;2023-02-28T01:33:59;7.84;;;7.64;;
70450;SDS011;58869;51.982;4.450;2023-02-28T01:36:39;8.15;;;7.97;;
70450;SDS011;58869;51.982;4.450;2023-02-28T01:39:13;7.63;;;7.52;;
70450;SDS011;58869;51.982;4.450;2023-02-28T01:41:39;7.42;;;7.25;;
70450;SDS011;58869;51.982;4.450;2023-02-28T01:47:16;7.38;;;7.19;;
70450;SDS011;58869;51.982;4.450;2023-02-28T01:49:42;7.17;;;7.02;;
70450;SDS011;58869;51.982;4.450;2023-02-28T01:52:32;6.63;;;6.51;;
70450;SDS011;58869;51.982;4.450;2023-02-28T01:55:05;5.89;;;5.83;;
70450;SDS011;58869;51.982;4.450;2023-02-28T01:57:43;5.75;;;5.72;;
70450;SDS011;58869;51.982;4.450;2023-02-28T02:00:13;5.73;;;5.71;;
70450;SDS011;58869;51.982;4.450;2023-02-28T02:02:53;5.49;;;5.47;;
70450;SDS011;58869;51.982;4.450;2023-02-28T02:08:33;6.71;;;6.62;;
70450;SDS011;58869;51.982;4.450;2023-02-28T02:11:11;7.56;;;7.47;;
70450;SDS011;58869;51.982;4.450;2023-02-28T02:16:48;7.09;;;7.04;;
70450;SDS011;58869;51.982;4.450;2023-02-28T02:34:55;5.61;;;5.61;;
70450;SDS011;58869;51.982;4.450;2023-02-28T02:37:47;5.46;;;5.46;;
70450;SDS011;58869;51.982;4.450;2023-02-28T02:40:23;5.77;;;5.77;;
70450;SDS011;58869;51.982;4.450;2023-02-28T02:46:17;5.99;;;5.99;;
70450;SDS011;58869;51.982;4.450;2023-02-28T02:48:55;5.93;;;5.93;;
70450;SDS011;58869;51.982;4.450;2023-02-28T02:51:33;5.76;;;5.76;;
70450;SDS011;58869;51.982;4.450;2023-02-28T02:57:01;5.81;;;5.81;;
70450;SDS011;58869;51.982;4.450;2023-02-28T02:59:31;5.99;;;5.99;;
70450;SDS011;58869;51.982;4.450;2023-02-28T03:02:25;6.04;;;6.04;;
70450;SDS011;58869;51.982;4.450;2023-02-28T03:05:00;6.14;;;6.14;;
70450;SDS011;58869;51.982;4.450;2023-02-28T03:07:42;6.08;;;6.08;;
70450;SDS011;58869;51.982;4.450;2023-02-28T03:30:03;5.90;;;5.89;;
70450;SDS011;58869;51.982;4.450;2023-02-28T03:36:09;6.30;;;6.30;;
70450;SDS011;58869;51.982;4.450;2023-02-28T03:38:51;6.49;;;6.49;;
70450;SDS011;58869;51.982;4.450;2023-02-28T03:48:34;7.40;;;7.40;;
70450;SDS011;58869;51.982;4.450;2023-02-28T03:54:04;8.48;;;8.47;;
70450;SDS011;58869;51.982;4.450;2023-02-28T03:56:48;8.18;;;8.17;;
70450;SDS011;58869;51.982;4.450;2023-02-28T03:59:42;7.92;;;7.92;;
70450;SDS011;58869;51.982;4.450;2023-02-28T04:02:32;7.35;;;7.35;;
70450;SDS011;58869;51.982;4.450;2023-02-28T04:05:07;7.75;;;7.75;;
70450;SDS011;58869;51.982;4.450;2023-02-28T04:07:33;7.53;;;7.50;;
70450;SDS011;58869;51.982;4.450;2023-02-28T04:10:01;7.50;;;7.48;;
70450;SDS011;58869;51.982;4.450;2023-02-28T04:13:01;7.35;;;7.35;;
70450;SDS011;58869;51.982;4.450;2023-02-28T04:15:19;7.08;;;7.08;;
70450;SDS011;58869;51.982;4.450;2023-02-28T04:17:53;7.19;;;7.19;;
70450;SDS011;58869;51.982;4.450;2023-02-28T04:20:36;7.59;;;7.59;;
70450;SDS011;58869;51.982;4.450;2023-02-28T04:23:10;7.24;;;7.24;;
70450;SDS011;58869;51.982;4.450;2023-02-28T04:25:36;7.48;;;7.47;;
70450;SDS011;58869;51.982;4.450;2023-02-28T04:28:01;7.70;;;7.70;;
70450;SDS011;58869;51.982;4.450;2023-02-28T04:30:27;7.79;;;7.79;;
70450;SDS011;58869;51.982;4.450;2023-02-28T04:32:56;7.97;;;7.97;;
70450;SDS011;58869;51.982;4.450;2023-02-28T04:37:58;7.84;;;7.84;;
70450;SDS011;58869;51.982;4.450;2023-02-28T04:40:36;7.29;;;7.29;;
70450;SDS011;58869;51.982;4.450;2023-02-28T04:43:01;7.78;;;7.78;;
70450;SDS011;58869;51.982;4.450;2023-02-28T04:45:28;7.75;;;7.75;;
70450;SDS011;58869;51.982;4.450;2023-02-28T04:48:07;7.55;;;7.55;;
70450;SDS011;58869;51.982;4.450;2023-02-28T04:50:32;7.37;;;7.37;;
70450;SDS011;58869;51.982;4.450;2023-02-28T04:53:01;7.81;;;7.81;;
70450;SDS011;58869;51.982;4.450;2023-02-28T04:55:31;7.31;;;7.31;;
70450;SDS011;58869;51.982;4.450;2023-02-28T04:58:00;7.63;;;7.63;;
70450;SDS011;58869;51.982;4.450;2023-02-28T05:03:41;7.57;;;7.57;;
70450;SDS011;58869;51.982;4.450;2023-02-28T05:06:20;7.36;;;7.36;;
70450;SDS011;58869;51.982;4.450;2023-02-28T05:08:48;7.46;;;7.44;;
70450;SDS011;58869;51.982;4.450;2023-02-28T05:14:12;7.98;;;7.98;;
70450;SDS011;58869;51.982;4.450;2023-02-28T05:16:41;7.77;;;7.76;;
70450;SDS011;58869;51.982;4.450;2023-02-28T05:19:06;8.10;;;8.10;;
70450;SDS011;58869;51.982;4.450;2023-02-28T05:21:39;8.99;;;8.97;;
70450;SDS011;58869;51.982;4.450;2023-02-28T05:24:07;9.23;;;9.21;;
70450;SDS011;58869;51.982;4.450;2023-02-28T05:27:11;9.60;;;9.59;;
70450;SDS011;58869;51.982;4.450;2023-02-28T05:29:37;9.47;;;9.47;;
70450;SDS011;58869;51.982;4.450;2023-02-28T05:32:10;10.15;;;10.15;;
70450;SDS011;58869;51.982;4.450;2023-02-28T05:34:49;9.98;;;9.98;;
70450;SDS011;58869;51.982;4.450;2023-02-28T05:37:17;10.91;;;10.91;;
70450;SDS011;58869;51.982;4.450;2023-02-28T05:40:04;11.08;;;11.08;;
70450;SDS011;58869;51.982;4.450;2023-02-28T05:42:34;11.51;;;11.50;;
70450;SDS011;58869;51.982;4.450;2023-02-28T05:45:00;11.79;;;11.77;;
70450;SDS011;58869;51.982;4.450;2023-02-28T05:47:25;11.85;;;11.83;;
70450;SDS011;58869;51.982;4.450;2023-02-28T05:53:08;12.08;;;12.05;;
70450;SDS011;58869;51.982;4.450;2023-02-28T05:55:35;12.43;;;12.42;;
70450;SDS011;58869;51.982;4.450;2023-02-28T05:58:04;12.43;;;12.30;;
70450;SDS011;58869;51.982;4.450;2023-02-28T06:00:39;12.03;;;12.03;;
70450;SDS011;58869;51.982;4.450;2023-02-28T06:03:04;12.54;;;12.54;;
70450;SDS011;58869;51.982;4.450;2023-02-28T06:08:56;12.15;;;12.07;;
70450;SDS011;58869;51.982;4.450;2023-02-28T06:11:22;12.01;;;11.96;;
70450;SDS011;58869;51.982;4.450;2023-02-28T06:16:47;12.07;;;12.07;;
70450;SDS011;58869;51.982;4.450;2023-02-28T06:19:18;11.85;;;11.85;;
70450;SDS011;58869;51.982;4.450;2023-02-28T06:21:44;12.28;;;12.27;;
70450;SDS011;58869;51.982;4.450;2023-02-28T06:24:13;12.07;;;12.07;;
70450;SDS011;58869;51.982;4.450;2023-02-28T06:27:01;12.04;;;12.04;;
70450;SDS011;58869;51.982;4.450;2023-02-28T06:29:45;11.47;;;11.47;;
70450;SDS011;58869;51.982;4.450;2023-02-28T06:32:32;10.42;;;10.39;;
70450;SDS011;58869;51.982;4.450;2023-02-28T06:34:57;10.39;;;10.39;;
70450;SDS011;58869;51.982;4.450;2023-02-28T06:37:41;10.07;;;10.07;;
70450;SDS011;58869;51.982;4.450;2023-02-28T06:40:09;10.18;;;10.17;;
70450;SDS011;58869;51.982;4.450;2023-02-28T06:42:44;9.69;;;9.68;;
70450;SDS011;58869;51.982;4.450;2023-02-28T06:45:12;8.00;;;8.00;;
70450;SDS011;58869;51.982;4.450;2023-02-28T06:47:40;7.29;;;7.28;;
70450;SDS011;58869;51.982;4.450;2023-02-28T06:56:21;6.84;;;6.84;;
70450;SDS011;58869;51.982;4.450;2023-02-28T06:58:48;7.10;;;7.10;;
70450;SDS011;58869;51.982;4.450;2023-02-28T07:01:14;6.88;;;6.88;;
70450;SDS011;58869;51.982;4.450;2023-02-28T07:04:21;6.43;;;6.43;;
70450;SDS011;58869;51.982;4.450;2023-02-28T07:07:05;6.76;;;6.76;;
70450;SDS011;58869;51.982;4.450;2023-02-28T07:09:33;6.95;;;6.95;;
70450;SDS011;58869;51.982;4.450;2023-02-28T07:12:08;7.42;;;7.42;;
70450;SDS011;58869;51.982;4.450;2023-02-28T07:18:40;7.75;;;7.75;;
70450;SDS011;58869;51.982;4.450;2023-02-28T07:21:26;7.68;;;7.68;;
70450;SDS011;58869;51.982;4.450;2023-02-28T07:41:29;8.55;;;8.55;;
70450;SDS011;58869;51.982;4.450;2023-02-28T08:01:53;8.57;;;8.57;;
70450;SDS011;58869;51.982;4.450;2023-02-28T08:08:38;8.79;;;8.79;;
70450;SDS011;58869;51.982;4.450;2023-02-28T08:14:27;8.52;;;8.52;;
70450;SDS011;58869;51.982;4.450;2023-02-28T08:23:08;7.79;;;7.79;;
70450;SDS011;58869;51.982;4.450;2023-02-28T08:25:36;7.92;;;7.92;;
70450;SDS011;58869;51.982;4.450;2023-02-28T08:28:19;7.79;;;7.79;;
70450;SDS011;58869;51.982;4.450;2023-02-28T08:30:56;7.86;;;7.86;;
70450;SDS011;58869;51.982;4.450;2023-02-28T08:33:22;8.02;;;8.02;;
70450;SDS011;58869;51.982;4.450;2023-02-28T08:45:33;8.82;;;8.82;;
70450;SDS011;58869;51.982;4.450;2023-02-28T08:47:58;8.25;;;8.25;;
70450;SDS011;58869;51.982;4.450;2023-02-28T08:50:39;8.73;;;8.73;;
70450;SDS011;58869;51.982;4.450;2023-02-28T08:53:17;8.86;;;8.86;;
70450;SDS011;58869;51.982;4.450;2023-02-28T08:55:50;8.91;;;8.91;;
70450;SDS011;58869;51.982;4.450;2023-02-28T08:58:54;8.20;;;8.20;;
70450;SDS011;58869;51.982;4.450;2023-02-28T09:04:10;8.77;;;8.77;;
70450;SDS011;58869;51.982;4.450;2023-02-28T09:06:36;8.59;;;8.59;;
70450;SDS011;58869;51.982;4.450;2023-02-28T13:43:05;4.44;;;4.44;;
70450;SDS011;58869;51.982;4.450;2023-02-28T13:46:36;4.56;;;4.56;;
70450;SDS011;58869;51.982;4.450;2023-02-28T13:49:47;4.71;;;4.71;;
70450;SDS011;58869;51.982;4.450;2023-02-28T13:52:17;4.72;;;4.72;;
70450;SDS011;58869;51.982;4.450;2023-02-28T14:07:50;4.90;;;4.90;;
70450;SDS011;58869;51.982;4.450;2023-02-28T14:20:43;4.62;;;4.62;;
70450;SDS011;58869;51.982;4.450;2023-02-28T14:40:32;5.10;;;5.10;;
70450;SDS011;58869;51.982;4.450;2023-02-28T14:43:18;4.74;;;4.74;;
70450;SDS011;58869;51.982;4.450;2023-02-28T16:36:24;5.23;;;5.23;;
70450;SDS011;58869;51.982;4.450;2023-02-28T17:29:39;6.54;;;6.54;;
70450;SDS011;58869;51.982;4.450;2023-02-28T17:32:07;6.35;;;6.35;;
70450;SDS011;58869;51.982;4.450;2023-02-28T17:38:25;6.47;;;6.47;;
70450;SDS011;58869;51.982;4.450;2023-02-28T17:41:05;6.78;;;6.78;;
70450;SDS011;58869;51.982;4.450;2023-02-28T17:43:30;6.69;;;6.69;;
70450;SDS011;58869;51.982;4.450;2023-02-28T17:45:56;6.62;;;6.62;;
70450;SDS011;58869;51.982;4.450;2023-02-28T17:48:30;7.36;;;7.36;;
70450;SDS011;58869;51.982;4.450;2023-02-28T17:54:18;6.83;;;6.83;;
70450;SDS011;58869;51.982;4.450;2023-02-28T17:56:58;7.40;;;7.40;;
70450;SDS011;58869;51.982;4.450;2023-02-28T18:08:37;7.36;;;7.36;;
70450;SDS011;58869;51.982;4.450;2023-02-28T18:11:19;7.66;;;7.66;;
70450;SDS011;58869;51.982;4.450;2023-02-28T18:13:46;7.55;;;7.55;;
70450;SDS011;58869;51.982;4.450;2023-02-28T18:16:51;7.77;;;7.77;;
70450;SDS011;58869;51.982;4.450;2023-02-28T18:22:42;8.39;;;8.39;;
70450;SDS011;58869;51.982;4.450;2023-02-28T18:25:08;9.30;;;9.30;;
70450;SDS011;58869;51.982;4.450;2023-02-28T18:27:39;8.96;;;8.96;;
70450;SDS011;58869;51.982;4.450;2023-02-28T18:35:56;9.66;;;9.66;;
70450;SDS011;58869;51.982;4.450;2023-02-28T18:38:21;9.14;;;9.14;;
70450;SDS011;58869;51.982;4.450;2023-02-28T18:41:06;9.10;;;9.10;;
70450;SDS011;58869;51.982;4.450;2023-02-28T18:43:33;9.59;;;9.59;;
70450;SDS011;58869;51.982;4.450;2023-02-28T18:46:18;9.40;;;9.40;;
70450;SDS011;58869;51.982;4.450;2023-02-28T18:48:56;9.55;;;9.55;;
70450;SDS011;58869;51.982;4.450;2023-02-28T18:51:22;9.22;;;9.22;;
70450;SDS011;58869;51.982;4.450;2023-02-28T18:54:09;9.42;;;9.42;;
70450;SDS011;58869;51.982;4.450;2023-02-28T18:56:35;9.68;;;9.68;;
70450;SDS011;58869;51.982;4.450;2023-02-28T18:59:18;9.56;;;9.56;;
70450;SDS011;58869;51.982;4.450;2023-02-28T19:05:09;9.75;;;9.75;;
70450;SDS011;58869;51.982;4.450;2023-02-28T19:07:42;9.56;;;9.56;;
70450;SDS011;58869;51.982;4.450;2023-02-28T19:10:08;9.72;;;9.72;;
70450;SDS011;58869;51.982;4.450;2023-02-28T19:12:43;9.81;;;9.81;;
70450;SDS011;58869;51.982;4.450;2023-02-28T19:15:15;9.64;;;9.64;;
70450;SDS011;58869;51.982;4.450;2023-02-28T19:17:40;10.03;;;10.03;;
70450;SDS011;58869;51.982;4.450;2023-02-28T19:20:21;9.45;;;9.45;;
70450;SDS011;58869;51.982;4.450;2023-02-28T19:22:46;9.78;;;9.78;;
70450;SDS011;58869;51.982;4.450;2023-02-28T19:25:15;10.03;;;10.03;;
70450;SDS011;58869;51.982;4.450;2023-02-28T19:27:43;10.95;;;10.95;;
70450;SDS011;58869;51.982;4.450;2023-02-28T19:30:13;10.86;;;10.86;;
70450;SDS011;58869;51.982;4.450;2023-02-28T19:32:38;11.75;;;11.75;;
70450;SDS011;58869;51.982;4.450;2023-02-28T19:35:10;11.97;;;11.97;;
70450;SDS011;58869;51.982;4.450;2023-02-28T19:37:36;10.45;;;10.45;;
70450;SDS011;58869;51.982;4.450;2023-02-28T19:40:14;10.79;;;10.79;;
70450;SDS011;58869;51.982;4.450;2023-02-28T19:42:43;10.31;;;10.31;;
70450;SDS011;58869;51.982;4.450;2023-02-28T19:45:08;10.64;;;10.64;;
70450;SDS011;58869;51.982;4.450;2023-02-28T19:51:08;11.32;;;11.32;;
70450;SDS011;58869;51.982;4.450;2023-02-28T19:53:47;10.83;;;10.83;;
70450;SDS011;58869;51.982;4.450;2023-02-28T19:56:24;11.30;;;11.30;;
70450;SDS011;58869;51.982;4.450;2023-02-28T19:58:54;11.32;;;11.32;;
70450;SDS011;58869;51.982;4.450;2023-02-28T20:01:45;11.46;;;11.46;;
70450;SDS011;58869;51.982;4.450;2023-02-28T20:04:29;11.38;;;11.38;;
70450;SDS011;58869;51.982;4.450;2023-02-28T20:06:55;11.96;;;11.96;;
70450;SDS011;58869;51.982;4.450;2023-02-28T20:09:23;12.11;;;12.11;;
70450;SDS011;58869;51.982;4.450;2023-02-28T20:11:48;12.39;;;12.39;;
70450;SDS011;58869;51.982;4.450;2023-02-28T20:14:14;13.41;;;13.41;;
70450;SDS011;58869;51.982;4.450;2023-02-28T20:16:44;14.24;;;14.24;;
70450;SDS011;58869;51.982;4.450;2023-02-28T20:19:22;14.08;;;14.08;;
70450;SDS011;58869;51.982;4.450;2023-02-28T20:21:48;14.92;;;14.92;;
70450;SDS011;58869;51.982;4.450;2023-02-28T20:24:13;16.81;;;16.81;;
70450;SDS011;58869;51.982;4.450;2023-02-28T20:26:54;15.88;;;15.88;;
70450;SDS011;58869;51.982;4.450;2023-02-28T20:29:29;16.94;;;16.94;;
70450;SDS011;58869;51.982;4.450;2023-02-28T20:31:57;17.41;;;17.41;;
70450;SDS011;58869;51.982;4.450;2023-02-28T20:34:23;16.65;;;16.65;;
70450;SDS011;58869;51.982;4.450;2023-02-28T20:36:51;16.64;;;16.64;;
70450;SDS011;58869;51.982;4.450;2023-02-28T20:42:15;17.08;;;17.08;;
70450;SDS011;58869;51.982;4.450;2023-02-28T20:44:49;16.97;;;16.97;;
70450;SDS011;58869;51.982;4.450;2023-02-28T20:47:21;17.44;;;17.44;;
70450;SDS011;58869;51.982;4.450;2023-02-28T20:49:47;17.06;;;17.06;;
70450;SDS011;58869;51.982;4.450;2023-02-28T20:55:18;16.76;;;16.76;;
70450;SDS011;58869;51.982;4.450;2023-02-28T20:57:59;16.60;;;16.60;;
70450;SDS011;58869;51.982;4.450;2023-02-28T21:00:25;16.17;;;16.17;;
70450;SDS011;58869;51.982;4.450;2023-02-28T21:02:51;16.77;;;16.77;;
70450;SDS011;58869;51.982;4.450;2023-02-28T21:14:15;16.70;;;16.70;;
70450;SDS011;58869;51.982;4.450;2023-02-28T21:16:42;16.64;;;16.64;;
70450;SDS011;58869;51.982;4.450;2023-02-28T21:19:08;16.36;;;16.36;;
70450;SDS011;58869;51.982;4.450;2023-02-28T21:21:41;16.76;;;16.76;;
70450;SDS011;58869;51.982;4.450;2023-02-28T21:24:09;16.20;;;16.20;;
70450;SDS011;58869;51.982;4.450;2023-02-28T21:26:37;16.40;;;16.40;;
70450;SDS011;58869;51.982;4.450;2023-02-28T21:29:03;16.59;;;16.59;;
70450;SDS011;58869;51.982;4.450;2023-02-28T21:31:30;16.41;;;16.41;;
70450;SDS011;58869;51.982;4.450;2023-02-28T21:34:03;16.19;;;16.19;;
70450;SDS011;58869;51.982;4.450;2023-02-28T21:39:11;16.59;;;16.59;;
70450;SDS011;58869;51.982;4.450;2023-02-28T21:45:18;17.72;;;17.72;;
70450;SDS011;58869;51.982;4.450;2023-02-28T21:50:43;16.94;;;16.94;;
70450;SDS011;58869;51.982;4.450;2023-02-28T22:02:53;18.21;;;18.21;;
70450;SDS011;58869;51.982;4.450;2023-02-28T22:05:40;18.49;;;18.49;;
70450;SDS011;58869;51.982;4.450;2023-02-28T22:08:15;18.16;;;18.16;;
70450;SDS011;58869;51.982;4.450;2023-02-28T22:11:00;18.55;;;18.55;;
70450;SDS011;58869;51.982;4.450;2023-02-28T22:31:46;19.09;;;19.09;;
70450;SDS011;58869;51.982;4.450;2023-02-28T22:34:12;18.81;;;18.81;;
70450;SDS011;58869;51.982;4.450;2023-02-28T22:43:25;18.71;;;18.71;;
70450;SDS011;58869;51.982;4.450;2023-02-28T22:46:02;19.65;;;19.65;;
70450;SDS011;58869;51.982;4.450;2023-02-28T22:48:29;19.29;;;19.29;;
70450;SDS011;58869;51.982;4.450;2023-02-28T22:51:49;19.85;;;19.85;;
70450;SDS011;58869;51.982;4.450;2023-02-28T22:54:24;19.52;;;19.52;;
70450;SDS011;58869;51.982;4.450;2023-02-28T22:56:55;20.12;;;20.12;;
70450;SDS011;58869;51.982;4.450;2023-02-28T22:59:21;20.12;;;20.12;;
70450;SDS011;58869;51.982;4.450;2023-02-28T23:02:02;19.35;;;19.35;;
70450;SDS011;58869;51.982;4.450;2023-02-28T23:04:33;19.62;;;19.62;;
70450;SDS011;58869;51.982;4.450;2023-02-28T23:07:24;20.35;;;20.35;;
70450;SDS011;58869;51.982;4.450;2023-02-28T23:09:50;19.85;;;19.85;;
70450;SDS011;58869;51.982;4.450;2023-02-28T23:15:17;21.12;;;21.12;;
70450;SDS011;58869;51.982;4.450;2023-02-28T23:17:57;20.86;;;20.86;;
70450;SDS011;58869;51.982;4.450;2023-02-28T23:20:43;20.08;;;20.08;;
70450;SDS011;58869;51.982;4.450;2023-02-28T23:23:12;20.89;;;20.88;;
70450;SDS011;58869;51.982;4.450;2023-02-28T23:25:49;20.74;;;20.73;;
70450;SDS011;58869;51.982;4.450;2023-02-28T23:32:01;20.84;;;20.84;;
70450;SDS011;58869;51.982;4.450;2023-02-28T23:34:27;21.02;;;21.02;;
70450;SDS011;58869;51.982;4.450;2023-02-28T23:37:23;21.22;;;21.22;;
70450;SDS011;58869;51.982;4.450;2023-02-28T23:40:00;21.33;;;21.33;;
70450;SDS011;58869;51.982;4.450;2023-02-28T23:42:26;21.59;;;21.59;;
70450;SDS011;58869;51.982;4.450;2023-02-28T23:44:58;21.54;;;21.54;;
70450;SDS011;58869;51.982;4.450;2023-02-28T23:47:24;21.22;;;21.22;;
70450;SDS011;58869;51.982;4.450;2023-02-28T23:49:55;21.19;;;21.19;;
70450;SDS011;58869;51.982;4.450;2023-02-28T23:55:26;22.25;;;22.25;;
70450;SDS011;58869;51.982;4.450;2023-02-28T23:57:58;21.85;;;21.85;;
